sensor_id;sensor_type;location;lat;lon;timestamp;P1;durP1;ratioP1;P2;durP2;ratioP2
48040;SDS011;33815;48.386;11.738;2023-02-04T00:00:15;2.60;;;2.30;;
48040;SDS011;33815;48.386;11.738;2023-02-04T00:02:42;3.00;;;2.30;;
48040;SDS011;33815;48.386;11.738;2023-02-04T00:05:07;2.47;;;2.33;;
48040;SDS011;33815;48.386;11.738;2023-02-04T00:07:34;7.70;;;2.00;;
48040;SDS011;33815;48.386;11.738;2023-02-04T00:09:59;4.30;;;2.22;;
48040;SDS011;33815;48.386;11.738;2023-02-04T00:12:25;6.15;;;2.70;;
48040;SDS011;33815;48.386;11.738;2023-02-04T00:14:50;5.13;;;2.20;;
48040;SDS011;33815;48.386;11.738;2023-02-04T00:17:15;5.20;;;2.60;;
48040;SDS011;33815;48.386;11.738;2023-02-04T00:19:40;1.95;;;1.85;;
48040;SDS011;33815;48.386;11.738;2023-02-04T00:22:06;6.32;;;2.42;;
48040;SDS011;33815;48.386;11.738;2023-02-04T00:24:36;3.40;;;2.10;;
48040;SDS011;33815;48.386;11.738;2023-02-04T00:27:02;3.30;;;1.88;;
48040;SDS011;33815;48.386;11.738;2023-02-04T00:29:28;11.63;;;2.60;;
48040;SDS011;33815;48.386;11.738;2023-02-04T00:31:53;6.95;;;2.38;;
48040;SDS011;33815;48.386;11.738;2023-02-04T00:34:19;9.10;;;2.63;;
48040;SDS011;33815;48.386;11.738;2023-02-04T00:36:44;8.23;;;2.78;;
48040;SDS011;33815;48.386;11.738;2023-02-04T00:39:09;9.20;;;3.03;;
48040;SDS011;33815;48.386;11.738;2023-02-04T00:41:34;3.65;;;2.20;;
48040;SDS011;33815;48.386;11.738;2023-02-04T00:44:00;5.10;;;3.13;;
48040;SDS011;33815;48.386;11.738;2023-02-04T00:46:25;12.98;;;2.90;;
48040;SDS011;33815;48.386;11.738;2023-02-04T00:48:50;12.07;;;2.90;;
48040;SDS011;33815;48.386;11.738;2023-02-04T00:51:15;9.00;;;2.75;;
48040;SDS011;33815;48.386;11.738;2023-02-04T00:53:41;7.85;;;2.97;;
48040;SDS011;33815;48.386;11.738;2023-02-04T00:56:06;7.00;;;3.30;;
48040;SDS011;33815;48.386;11.738;2023-02-04T00:58:31;6.97;;;2.72;;
48040;SDS011;33815;48.386;11.738;2023-02-04T01:00:57;13.48;;;2.78;;
48040;SDS011;33815;48.386;11.738;2023-02-04T01:03:22;5.93;;;3.25;;
48040;SDS011;33815;48.386;11.738;2023-02-04T01:05:47;11.25;;;3.53;;
48040;SDS011;33815;48.386;11.738;2023-02-04T01:08:13;13.23;;;3.50;;
48040;SDS011;33815;48.386;11.738;2023-02-04T01:10:38;8.93;;;4.05;;
48040;SDS011;33815;48.386;11.738;2023-02-04T01:13:04;10.25;;;3.05;;
48040;SDS011;33815;48.386;11.738;2023-02-04T01:15:29;11.82;;;3.35;;
48040;SDS011;33815;48.386;11.738;2023-02-04T01:17:54;12.18;;;3.67;;
48040;SDS011;33815;48.386;11.738;2023-02-04T01:20:19;15.75;;;5.80;;
48040;SDS011;33815;48.386;11.738;2023-02-04T01:22:45;11.63;;;3.25;;
48040;SDS011;33815;48.386;11.738;2023-02-04T01:25:10;18.05;;;4.22;;
48040;SDS011;33815;48.386;11.738;2023-02-04T01:27:35;5.55;;;2.83;;
48040;SDS011;33815;48.386;11.738;2023-02-04T01:30:01;4.95;;;2.53;;
48040;SDS011;33815;48.386;11.738;2023-02-04T01:32:27;13.65;;;3.17;;
48040;SDS011;33815;48.386;11.738;2023-02-04T01:34:52;9.95;;;3.53;;
48040;SDS011;33815;48.386;11.738;2023-02-04T01:37:17;14.93;;;3.38;;
48040;SDS011;33815;48.386;11.738;2023-02-04T01:39:43;8.82;;;2.88;;
48040;SDS011;33815;48.386;11.738;2023-02-04T01:42:08;11.60;;;2.85;;
48040;SDS011;33815;48.386;11.738;2023-02-04T01:44:33;8.13;;;2.80;;
48040;SDS011;33815;48.386;11.738;2023-02-04T01:46:59;10.05;;;2.80;;
48040;SDS011;33815;48.386;11.738;2023-02-04T01:49:24;8.98;;;2.53;;
48040;SDS011;33815;48.386;11.738;2023-02-04T01:51:50;6.57;;;3.75;;
48040;SDS011;33815;48.386;11.738;2023-02-04T01:54:15;9.55;;;2.92;;
48040;SDS011;33815;48.386;11.738;2023-02-04T01:56:43;8.23;;;2.80;;
48040;SDS011;33815;48.386;11.738;2023-02-04T01:59:11;10.93;;;3.55;;
48040;SDS011;33815;48.386;11.738;2023-02-04T02:01:39;8.77;;;3.25;;
48040;SDS011;33815;48.386;11.738;2023-02-04T02:04:07;13.35;;;2.88;;
48040;SDS011;33815;48.386;11.738;2023-02-04T02:06:37;10.15;;;3.40;;
48040;SDS011;33815;48.386;11.738;2023-02-04T02:09:04;5.68;;;2.50;;
48040;SDS011;33815;48.386;11.738;2023-02-04T02:11:30;11.13;;;3.53;;
48040;SDS011;33815;48.386;11.738;2023-02-04T02:13:56;8.50;;;2.80;;
48040;SDS011;33815;48.386;11.738;2023-02-04T02:16:22;12.15;;;2.97;;
48040;SDS011;33815;48.386;11.738;2023-02-04T02:18:47;7.85;;;3.78;;
48040;SDS011;33815;48.386;11.738;2023-02-04T02:21:13;15.20;;;3.20;;
48040;SDS011;33815;48.386;11.738;2023-02-04T02:26:21;8.93;;;3.40;;
48040;SDS011;33815;48.386;11.738;2023-02-04T02:28:47;8.35;;;3.22;;
48040;SDS011;33815;48.386;11.738;2023-02-04T02:31:13;12.75;;;2.88;;
48040;SDS011;33815;48.386;11.738;2023-02-04T02:33:39;12.15;;;2.90;;
48040;SDS011;33815;48.386;11.738;2023-02-04T02:36:05;11.32;;;3.17;;
48040;SDS011;33815;48.386;11.738;2023-02-04T02:38:31;14.38;;;3.58;;
48040;SDS011;33815;48.386;11.738;2023-02-04T02:40:56;16.15;;;2.97;;
48040;SDS011;33815;48.386;11.738;2023-02-04T02:43:23;10.02;;;3.65;;
48040;SDS011;33815;48.386;11.738;2023-02-04T02:45:50;10.32;;;2.70;;
48040;SDS011;33815;48.386;11.738;2023-02-04T02:48:18;7.43;;;2.20;;
48040;SDS011;33815;48.386;11.738;2023-02-04T02:50:43;6.47;;;3.03;;
48040;SDS011;33815;48.386;11.738;2023-02-04T02:53:12;14.00;;;4.30;;
48040;SDS011;33815;48.386;11.738;2023-02-04T02:55:39;13.13;;;2.60;;
48040;SDS011;33815;48.386;11.738;2023-02-04T02:58:09;5.65;;;2.72;;
48040;SDS011;33815;48.386;11.738;2023-02-04T03:00:39;10.35;;;3.22;;
48040;SDS011;33815;48.386;11.738;2023-02-04T03:03:09;9.98;;;2.28;;
48040;SDS011;33815;48.386;11.738;2023-02-04T03:05:40;8.32;;;3.20;;
48040;SDS011;33815;48.386;11.738;2023-02-04T03:08:07;18.70;;;3.20;;
48040;SDS011;33815;48.386;11.738;2023-02-04T03:10:34;10.00;;;2.97;;
48040;SDS011;33815;48.386;11.738;2023-02-04T03:13:00;5.68;;;3.05;;
48040;SDS011;33815;48.386;11.738;2023-02-04T03:15:25;15.05;;;3.83;;
48040;SDS011;33815;48.386;11.738;2023-02-04T03:17:51;7.97;;;2.58;;
48040;SDS011;33815;48.386;11.738;2023-02-04T03:20:20;7.97;;;2.70;;
48040;SDS011;33815;48.386;11.738;2023-02-04T03:22:47;6.80;;;2.78;;
48040;SDS011;33815;48.386;11.738;2023-02-04T03:25:13;8.38;;;2.92;;
48040;SDS011;33815;48.386;11.738;2023-02-04T03:27:38;11.02;;;2.53;;
48040;SDS011;33815;48.386;11.738;2023-02-04T03:30:04;6.57;;;2.33;;
48040;SDS011;33815;48.386;11.738;2023-02-04T03:32:29;11.05;;;2.63;;
48040;SDS011;33815;48.386;11.738;2023-02-04T03:34:54;8.00;;;3.33;;
48040;SDS011;33815;48.386;11.738;2023-02-04T03:37:20;11.23;;;2.63;;
48040;SDS011;33815;48.386;11.738;2023-02-04T03:39:45;11.57;;;4.28;;
48040;SDS011;33815;48.386;11.738;2023-02-04T03:42:10;8.23;;;2.17;;
48040;SDS011;33815;48.386;11.738;2023-02-04T03:44:35;9.02;;;3.05;;
48040;SDS011;33815;48.386;11.738;2023-02-04T03:47:01;11.82;;;2.50;;
48040;SDS011;33815;48.386;11.738;2023-02-04T03:49:26;8.60;;;2.90;;
48040;SDS011;33815;48.386;11.738;2023-02-04T03:51:52;7.18;;;2.72;;
48040;SDS011;33815;48.386;11.738;2023-02-04T03:54:17;7.03;;;2.38;;
48040;SDS011;33815;48.386;11.738;2023-02-04T03:56:42;10.60;;;2.80;;
48040;SDS011;33815;48.386;11.738;2023-02-04T03:59:08;8.73;;;4.47;;
48040;SDS011;33815;48.386;11.738;2023-02-04T04:01:33;4.90;;;2.05;;
48040;SDS011;33815;48.386;11.738;2023-02-04T04:03:58;5.80;;;2.10;;
48040;SDS011;33815;48.386;11.738;2023-02-04T04:06:23;8.05;;;3.22;;
48040;SDS011;33815;48.386;11.738;2023-02-04T04:08:49;8.25;;;2.50;;
48040;SDS011;33815;48.386;11.738;2023-02-04T04:11:14;11.05;;;2.63;;
48040;SDS011;33815;48.386;11.738;2023-02-04T04:13:39;7.13;;;2.10;;
48040;SDS011;33815;48.386;11.738;2023-02-04T04:16:05;5.93;;;2.47;;
48040;SDS011;33815;48.386;11.738;2023-02-04T04:18:30;8.63;;;2.15;;
48040;SDS011;33815;48.386;11.738;2023-02-04T04:20:59;7.80;;;2.67;;
48040;SDS011;33815;48.386;11.738;2023-02-04T04:23:25;9.27;;;2.38;;
48040;SDS011;33815;48.386;11.738;2023-02-04T04:25:50;10.38;;;2.95;;
48040;SDS011;33815;48.386;11.738;2023-02-04T04:28:15;10.25;;;3.00;;
48040;SDS011;33815;48.386;11.738;2023-02-04T04:30:41;6.57;;;2.17;;
48040;SDS011;33815;48.386;11.738;2023-02-04T04:33:06;10.00;;;2.92;;
48040;SDS011;33815;48.386;11.738;2023-02-04T04:35:31;9.48;;;2.80;;
48040;SDS011;33815;48.386;11.738;2023-02-04T04:37:57;7.45;;;2.33;;
48040;SDS011;33815;48.386;11.738;2023-02-04T04:40:22;18.45;;;3.05;;
48040;SDS011;33815;48.386;11.738;2023-02-04T04:42:47;13.10;;;3.03;;
48040;SDS011;33815;48.386;11.738;2023-02-04T04:45:13;9.60;;;3.20;;
48040;SDS011;33815;48.386;11.738;2023-02-04T04:47:38;10.15;;;2.70;;
48040;SDS011;33815;48.386;11.738;2023-02-04T04:50:04;11.18;;;3.85;;
48040;SDS011;33815;48.386;11.738;2023-02-04T04:52:29;8.25;;;2.45;;
48040;SDS011;33815;48.386;11.738;2023-02-04T04:54:54;11.75;;;2.45;;
48040;SDS011;33815;48.386;11.738;2023-02-04T04:57:20;9.52;;;3.13;;
48040;SDS011;33815;48.386;11.738;2023-02-04T04:59:45;11.85;;;3.63;;
48040;SDS011;33815;48.386;11.738;2023-02-04T05:02:10;13.60;;;3.47;;
48040;SDS011;33815;48.386;11.738;2023-02-04T05:04:35;6.88;;;2.95;;
48040;SDS011;33815;48.386;11.738;2023-02-04T05:07:01;5.15;;;3.03;;
48040;SDS011;33815;48.386;11.738;2023-02-04T05:09:26;11.65;;;3.00;;
48040;SDS011;33815;48.386;11.738;2023-02-04T05:11:51;18.10;;;3.00;;
48040;SDS011;33815;48.386;11.738;2023-02-04T05:14:16;9.45;;;3.33;;
48040;SDS011;33815;48.386;11.738;2023-02-04T05:16:42;6.45;;;2.75;;
48040;SDS011;33815;48.386;11.738;2023-02-04T05:19:07;11.45;;;3.00;;
48040;SDS011;33815;48.386;11.738;2023-02-04T05:21:32;11.30;;;3.15;;
48040;SDS011;33815;48.386;11.738;2023-02-04T05:23:57;11.10;;;3.15;;
48040;SDS011;33815;48.386;11.738;2023-02-04T05:26:23;6.78;;;2.67;;
48040;SDS011;33815;48.386;11.738;2023-02-04T05:28:48;9.35;;;2.55;;
48040;SDS011;33815;48.386;11.738;2023-02-04T05:31:13;11.60;;;3.40;;
48040;SDS011;33815;48.386;11.738;2023-02-04T05:33:38;6.82;;;2.20;;
48040;SDS011;33815;48.386;11.738;2023-02-04T05:36:04;8.32;;;2.70;;
48040;SDS011;33815;48.386;11.738;2023-02-04T05:38:29;11.45;;;2.38;;
48040;SDS011;33815;48.386;11.738;2023-02-04T05:40:55;9.38;;;2.42;;
48040;SDS011;33815;48.386;11.738;2023-02-04T05:43:20;11.75;;;2.53;;
48040;SDS011;33815;48.386;11.738;2023-02-04T05:45:45;3.50;;;2.50;;
48040;SDS011;33815;48.386;11.738;2023-02-04T05:48:10;10.55;;;3.03;;
48040;SDS011;33815;48.386;11.738;2023-02-04T05:50:36;10.43;;;2.63;;
48040;SDS011;33815;48.386;11.738;2023-02-04T05:53:01;9.95;;;2.63;;
48040;SDS011;33815;48.386;11.738;2023-02-04T05:55:26;9.82;;;2.72;;
48040;SDS011;33815;48.386;11.738;2023-02-04T05:57:51;12.90;;;2.67;;
48040;SDS011;33815;48.386;11.738;2023-02-04T06:00:17;9.85;;;2.47;;
48040;SDS011;33815;48.386;11.738;2023-02-04T06:02:42;9.65;;;2.47;;
48040;SDS011;33815;48.386;11.738;2023-02-04T06:05:08;7.65;;;2.55;;
48040;SDS011;33815;48.386;11.738;2023-02-04T06:07:33;10.00;;;3.33;;
48040;SDS011;33815;48.386;11.738;2023-02-04T06:09:58;7.90;;;3.05;;
48040;SDS011;33815;48.386;11.738;2023-02-04T06:12:23;8.48;;;2.60;;
48040;SDS011;33815;48.386;11.738;2023-02-04T06:14:49;5.28;;;2.25;;
48040;SDS011;33815;48.386;11.738;2023-02-04T06:17:14;6.57;;;2.35;;
48040;SDS011;33815;48.386;11.738;2023-02-04T06:19:39;8.43;;;3.10;;
48040;SDS011;33815;48.386;11.738;2023-02-04T06:22:04;6.25;;;2.33;;
48040;SDS011;33815;48.386;11.738;2023-02-04T06:24:30;12.07;;;2.33;;
48040;SDS011;33815;48.386;11.738;2023-02-04T06:26:55;7.43;;;2.53;;
48040;SDS011;33815;48.386;11.738;2023-02-04T06:29:20;7.65;;;2.83;;
48040;SDS011;33815;48.386;11.738;2023-02-04T06:31:45;8.55;;;2.47;;
48040;SDS011;33815;48.386;11.738;2023-02-04T06:34:13;10.80;;;3.15;;
48040;SDS011;33815;48.386;11.738;2023-02-04T06:36:38;13.27;;;2.97;;
48040;SDS011;33815;48.386;11.738;2023-02-04T06:39:03;8.68;;;3.00;;
48040;SDS011;33815;48.386;11.738;2023-02-04T06:41:28;8.43;;;2.15;;
48040;SDS011;33815;48.386;11.738;2023-02-04T06:43:53;11.52;;;3.15;;
48040;SDS011;33815;48.386;11.738;2023-02-04T06:46:19;8.65;;;2.58;;
48040;SDS011;33815;48.386;11.738;2023-02-04T06:48:44;12.82;;;3.00;;
48040;SDS011;33815;48.386;11.738;2023-02-04T06:51:09;11.88;;;2.60;;
48040;SDS011;33815;48.386;11.738;2023-02-04T06:53:34;10.38;;;2.53;;
48040;SDS011;33815;48.386;11.738;2023-02-04T06:56:00;10.90;;;2.38;;
48040;SDS011;33815;48.386;11.738;2023-02-04T06:58:25;6.32;;;2.38;;
48040;SDS011;33815;48.386;11.738;2023-02-04T07:00:50;11.70;;;2.67;;
48040;SDS011;33815;48.386;11.738;2023-02-04T07:03:16;11.27;;;2.65;;
48040;SDS011;33815;48.386;11.738;2023-02-04T07:05:41;9.65;;;2.38;;
48040;SDS011;33815;48.386;11.738;2023-02-04T07:08:06;8.02;;;1.90;;
48040;SDS011;33815;48.386;11.738;2023-02-04T07:10:31;12.13;;;2.33;;
48040;SDS011;33815;48.386;11.738;2023-02-04T07:12:57;4.82;;;2.25;;
48040;SDS011;33815;48.386;11.738;2023-02-04T07:15:22;11.00;;;2.78;;
48040;SDS011;33815;48.386;11.738;2023-02-04T07:17:48;8.00;;;2.50;;
48040;SDS011;33815;48.386;11.738;2023-02-04T07:20:13;7.18;;;2.33;;
48040;SDS011;33815;48.386;11.738;2023-02-04T07:22:38;8.60;;;2.33;;
48040;SDS011;33815;48.386;11.738;2023-02-04T07:25:03;15.23;;;2.67;;
48040;SDS011;33815;48.386;11.738;2023-02-04T07:27:29;4.20;;;1.90;;
48040;SDS011;33815;48.386;11.738;2023-02-04T07:29:54;5.40;;;2.00;;
48040;SDS011;33815;48.386;11.738;2023-02-04T07:32:20;5.10;;;2.42;;
48040;SDS011;33815;48.386;11.738;2023-02-04T07:34:45;7.40;;;2.42;;
48040;SDS011;33815;48.386;11.738;2023-02-04T07:37:12;9.40;;;2.17;;
48040;SDS011;33815;48.386;11.738;2023-02-04T07:39:37;6.60;;;2.03;;
48040;SDS011;33815;48.386;11.738;2023-02-04T07:42:02;6.93;;;2.20;;
48040;SDS011;33815;48.386;11.738;2023-02-04T07:44:27;7.78;;;2.65;;
48040;SDS011;33815;48.386;11.738;2023-02-04T07:46:53;7.93;;;2.17;;
48040;SDS011;33815;48.386;11.738;2023-02-04T07:49:18;8.57;;;2.45;;
48040;SDS011;33815;48.386;11.738;2023-02-04T07:51:43;10.88;;;2.63;;
48040;SDS011;33815;48.386;11.738;2023-02-04T07:54:08;9.27;;;3.75;;
48040;SDS011;33815;48.386;11.738;2023-02-04T07:56:34;5.28;;;2.83;;
48040;SDS011;33815;48.386;11.738;2023-02-04T07:58:59;7.53;;;2.97;;
48040;SDS011;33815;48.386;11.738;2023-02-04T08:01:24;10.63;;;2.88;;
48040;SDS011;33815;48.386;11.738;2023-02-04T08:03:50;9.48;;;2.15;;
48040;SDS011;33815;48.386;11.738;2023-02-04T08:06:15;5.65;;;2.20;;
48040;SDS011;33815;48.386;11.738;2023-02-04T08:08:40;6.10;;;2.22;;
48040;SDS011;33815;48.386;11.738;2023-02-04T08:11:05;9.40;;;2.05;;
48040;SDS011;33815;48.386;11.738;2023-02-04T08:13:31;5.72;;;2.10;;
48040;SDS011;33815;48.386;11.738;2023-02-04T08:15:56;7.90;;;2.50;;
48040;SDS011;33815;48.386;11.738;2023-02-04T08:18:21;5.93;;;2.22;;
48040;SDS011;33815;48.386;11.738;2023-02-04T08:20:48;5.80;;;2.75;;
48040;SDS011;33815;48.386;11.738;2023-02-04T08:23:14;11.43;;;3.10;;
48040;SDS011;33815;48.386;11.738;2023-02-04T08:25:39;6.13;;;2.53;;
48040;SDS011;33815;48.386;11.738;2023-02-04T08:28:04;6.90;;;2.22;;
48040;SDS011;33815;48.386;11.738;2023-02-04T08:30:30;7.67;;;2.40;;
48040;SDS011;33815;48.386;11.738;2023-02-04T08:32:55;5.63;;;2.10;;
48040;SDS011;33815;48.386;11.738;2023-02-04T08:35:20;5.15;;;2.35;;
48040;SDS011;33815;48.386;11.738;2023-02-04T08:37:46;7.57;;;2.72;;
48040;SDS011;33815;48.386;11.738;2023-02-04T08:40:11;7.45;;;2.20;;
48040;SDS011;33815;48.386;11.738;2023-02-04T08:42:36;5.30;;;2.65;;
48040;SDS011;33815;48.386;11.738;2023-02-04T08:45:01;8.30;;;1.92;;
48040;SDS011;33815;48.386;11.738;2023-02-04T08:47:27;7.80;;;2.20;;
48040;SDS011;33815;48.386;11.738;2023-02-04T08:49:53;5.95;;;2.13;;
48040;SDS011;33815;48.386;11.738;2023-02-04T08:52:18;13.18;;;2.72;;
48040;SDS011;33815;48.386;11.738;2023-02-04T08:54:44;7.35;;;2.00;;
48040;SDS011;33815;48.386;11.738;2023-02-04T08:57:09;10.90;;;1.95;;
48040;SDS011;33815;48.386;11.738;2023-02-04T08:59:34;5.80;;;1.13;;
48040;SDS011;33815;48.386;11.738;2023-02-04T09:02:00;2.10;;;1.20;;
48040;SDS011;33815;48.386;11.738;2023-02-04T09:04:26;2.22;;;1.30;;
48040;SDS011;33815;48.386;11.738;2023-02-04T09:06:52;2.83;;;1.02;;
48040;SDS011;33815;48.386;11.738;2023-02-04T09:09:18;1.35;;;1.10;;
48040;SDS011;33815;48.386;11.738;2023-02-04T09:11:43;1.88;;;1.20;;
48040;SDS011;33815;48.386;11.738;2023-02-04T09:14:08;3.70;;;1.60;;
48040;SDS011;33815;48.386;11.738;2023-02-04T09:16:34;3.40;;;1.30;;
48040;SDS011;33815;48.386;11.738;2023-02-04T09:18:59;2.92;;;1.20;;
48040;SDS011;33815;48.386;11.738;2023-02-04T09:21:26;2.08;;;1.33;;
48040;SDS011;33815;48.386;11.738;2023-02-04T09:23:52;1.75;;;1.25;;
48040;SDS011;33815;48.386;11.738;2023-02-04T09:26:17;1.33;;;1.23;;
48040;SDS011;33815;48.386;11.738;2023-02-04T09:28:43;2.45;;;1.75;;
48040;SDS011;33815;48.386;11.738;2023-02-04T09:31:08;2.15;;;1.40;;
48040;SDS011;33815;48.386;11.738;2023-02-04T09:33:34;4.28;;;1.52;;
48040;SDS011;33815;48.386;11.738;2023-02-04T09:36:00;1.30;;;1.30;;
48040;SDS011;33815;48.386;11.738;2023-02-04T09:38:25;1.25;;;1.17;;
48040;SDS011;33815;48.386;11.738;2023-02-04T09:40:59;2.42;;;1.30;;
48040;SDS011;33815;48.386;11.738;2023-02-04T09:43:28;1.63;;;1.52;;
48040;SDS011;33815;48.386;11.738;2023-02-04T09:45:55;1.88;;;1.45;;
48040;SDS011;33815;48.386;11.738;2023-02-04T09:48:21;1.55;;;1.30;;
48040;SDS011;33815;48.386;11.738;2023-02-04T09:50:48;2.38;;;1.60;;
48040;SDS011;33815;48.386;11.738;2023-02-04T09:53:16;2.10;;;1.50;;
48040;SDS011;33815;48.386;11.738;2023-02-04T09:55:45;3.38;;;1.67;;
48040;SDS011;33815;48.386;11.738;2023-02-04T09:58:16;3.20;;;1.35;;
48040;SDS011;33815;48.386;11.738;2023-02-04T10:00:44;2.70;;;1.40;;
48040;SDS011;33815;48.386;11.738;2023-02-04T10:03:17;2.58;;;1.35;;
48040;SDS011;33815;48.386;11.738;2023-02-04T10:05:45;1.73;;;1.38;;
48040;SDS011;33815;48.386;11.738;2023-02-04T10:08:12;3.15;;;1.60;;
48040;SDS011;33815;48.386;11.738;2023-02-04T10:10:40;3.35;;;1.42;;
48040;SDS011;33815;48.386;11.738;2023-02-04T10:13:07;1.10;;;1.10;;
48040;SDS011;33815;48.386;11.738;2023-02-04T10:15:40;1.63;;;1.52;;
48040;SDS011;33815;48.386;11.738;2023-02-04T10:18:05;1.52;;;1.42;;
48040;SDS011;33815;48.386;11.738;2023-02-04T10:20:32;1.23;;;1.13;;
48040;SDS011;33815;48.386;11.738;2023-02-04T10:22:57;1.33;;;1.25;;
48040;SDS011;33815;48.386;11.738;2023-02-04T10:25:23;1.95;;;1.02;;
48040;SDS011;33815;48.386;11.738;2023-02-04T10:27:54;1.23;;;1.23;;
48040;SDS011;33815;48.386;11.738;2023-02-04T10:30:22;1.48;;;1.20;;
48040;SDS011;33815;48.386;11.738;2023-02-04T10:32:50;1.00;;;1.00;;
48040;SDS011;33815;48.386;11.738;2023-02-04T10:35:16;3.10;;;1.50;;
48040;SDS011;33815;48.386;11.738;2023-02-04T10:37:43;2.38;;;1.30;;
48040;SDS011;33815;48.386;11.738;2023-02-04T10:40:31;2.67;;;1.45;;
48040;SDS011;33815;48.386;11.738;2023-02-04T10:42:57;2.78;;;1.55;;
48040;SDS011;33815;48.386;11.738;2023-02-04T10:45:27;1.08;;;1.00;;
48040;SDS011;33815;48.386;11.738;2023-02-04T10:47:54;2.17;;;1.10;;
48040;SDS011;33815;48.386;11.738;2023-02-04T10:50:22;2.15;;;1.20;;
48040;SDS011;33815;48.386;11.738;2023-02-04T10:52:56;1.42;;;1.20;;
48040;SDS011;33815;48.386;11.738;2023-02-04T10:55:42;1.48;;;1.20;;
48040;SDS011;33815;48.386;11.738;2023-02-04T10:58:09;1.30;;;1.20;;
48040;SDS011;33815;48.386;11.738;2023-02-04T11:00:38;1.40;;;1.30;;
48040;SDS011;33815;48.386;11.738;2023-02-04T11:03:09;2.42;;;1.20;;
48040;SDS011;33815;48.386;11.738;2023-02-04T11:05:39;2.67;;;1.23;;
48040;SDS011;33815;48.386;11.738;2023-02-04T11:08:19;1.10;;;1.10;;
48040;SDS011;33815;48.386;11.738;2023-02-04T11:10:48;1.15;;;1.10;;
48040;SDS011;33815;48.386;11.738;2023-02-04T11:13:22;2.17;;;1.23;;
48040;SDS011;33815;48.386;11.738;2023-02-04T11:15:54;1.45;;;1.35;;
48040;SDS011;33815;48.386;11.738;2023-02-04T11:18:42;1.17;;;1.10;;
48040;SDS011;33815;48.386;11.738;2023-02-04T11:26:42;1.27;;;1.17;;
48040;SDS011;33815;48.386;11.738;2023-02-04T11:29:22;0.85;;;0.85;;
48040;SDS011;33815;48.386;11.738;2023-02-04T11:32:03;1.92;;;1.73;;
48040;SDS011;33815;48.386;11.738;2023-02-04T11:34:49;1.85;;;1.65;;
48040;SDS011;33815;48.386;11.738;2023-02-04T11:39:51;1.60;;;1.50;;
48040;SDS011;33815;48.386;11.738;2023-02-04T11:42:20;1.65;;;1.17;;
48040;SDS011;33815;48.386;11.738;2023-02-04T11:45:04;1.25;;;1.15;;
48040;SDS011;33815;48.386;11.738;2023-02-04T11:47:37;2.22;;;1.35;;
48040;SDS011;33815;48.386;11.738;2023-02-04T11:50:04;1.65;;;1.25;;
48040;SDS011;33815;48.386;11.738;2023-02-04T11:52:37;1.27;;;1.17;;
48040;SDS011;33815;48.386;11.738;2023-02-04T11:55:02;3.22;;;1.40;;
48040;SDS011;33815;48.386;11.738;2023-02-04T11:57:28;1.20;;;1.10;;
48040;SDS011;33815;48.386;11.738;2023-02-04T11:59:53;1.55;;;1.45;;
48040;SDS011;33815;48.386;11.738;2023-02-04T12:02:21;2.42;;;1.50;;
48040;SDS011;33815;48.386;11.738;2023-02-04T12:04:51;2.65;;;1.30;;
48040;SDS011;33815;48.386;11.738;2023-02-04T12:07:28;2.15;;;1.02;;
48040;SDS011;33815;48.386;11.738;2023-02-04T12:09:54;1.65;;;1.08;;
48040;SDS011;33815;48.386;11.738;2023-02-04T12:12:29;1.85;;;1.27;;
48040;SDS011;33815;48.386;11.738;2023-02-04T12:14:56;1.13;;;1.02;;
48040;SDS011;33815;48.386;11.738;2023-02-04T12:17:22;1.20;;;1.10;;
48040;SDS011;33815;48.386;11.738;2023-02-04T12:19:48;3.70;;;1.38;;
48040;SDS011;33815;48.386;11.738;2023-02-04T12:22:13;2.53;;;1.25;;
48040;SDS011;33815;48.386;11.738;2023-02-04T12:24:39;0.90;;;0.90;;
48040;SDS011;33815;48.386;11.738;2023-02-04T12:27:05;1.33;;;1.00;;
48040;SDS011;33815;48.386;11.738;2023-02-04T12:29:30;2.05;;;1.38;;
48040;SDS011;33815;48.386;11.738;2023-02-04T12:31:55;1.90;;;1.20;;
48040;SDS011;33815;48.386;11.738;2023-02-04T12:34:20;1.30;;;1.20;;
48040;SDS011;33815;48.386;11.738;2023-02-04T12:36:46;2.28;;;1.45;;
48040;SDS011;33815;48.386;11.738;2023-02-04T12:39:11;1.80;;;1.20;;
48040;SDS011;33815;48.386;11.738;2023-02-04T12:41:36;1.10;;;1.10;;
48040;SDS011;33815;48.386;11.738;2023-02-04T12:44:01;1.20;;;0.90;;
48040;SDS011;33815;48.386;11.738;2023-02-04T12:46:27;0.98;;;0.98;;
48040;SDS011;33815;48.386;11.738;2023-02-04T12:48:53;1.10;;;1.10;;
48040;SDS011;33815;48.386;11.738;2023-02-04T12:51:18;1.45;;;1.00;;
48040;SDS011;33815;48.386;11.738;2023-02-04T12:53:45;0.90;;;0.90;;
48040;SDS011;33815;48.386;11.738;2023-02-04T12:56:11;0.82;;;0.82;;
48040;SDS011;33815;48.386;11.738;2023-02-04T12:58:36;1.00;;;0.85;;
48040;SDS011;33815;48.386;11.738;2023-02-04T13:01:01;1.60;;;1.00;;
48040;SDS011;33815;48.386;11.738;2023-02-04T13:03:26;0.90;;;0.90;;
48040;SDS011;33815;48.386;11.738;2023-02-04T13:05:52;1.00;;;1.00;;
48040;SDS011;33815;48.386;11.738;2023-02-04T13:08:17;1.20;;;1.10;;
48040;SDS011;33815;48.386;11.738;2023-02-04T13:10:42;1.25;;;1.20;;
48040;SDS011;33815;48.386;11.738;2023-02-04T13:13:08;0.98;;;0.98;;
48040;SDS011;33815;48.386;11.738;2023-02-04T13:15:33;1.10;;;1.10;;
48040;SDS011;33815;48.386;11.738;2023-02-04T13:17:58;0.95;;;0.90;;
48040;SDS011;33815;48.386;11.738;2023-02-04T13:20:24;1.25;;;1.15;;
48040;SDS011;33815;48.386;11.738;2023-02-04T13:22:49;1.10;;;1.00;;
48040;SDS011;33815;48.386;11.738;2023-02-04T13:25:14;1.45;;;1.02;;
48040;SDS011;33815;48.386;11.738;2023-02-04T13:27:39;1.20;;;0.80;;
48040;SDS011;33815;48.386;11.738;2023-02-04T13:30:05;1.33;;;1.00;;
48040;SDS011;33815;48.386;11.738;2023-02-04T13:32:32;1.20;;;1.10;;
48040;SDS011;33815;48.386;11.738;2023-02-04T13:34:57;2.97;;;1.60;;
48040;SDS011;33815;48.386;11.738;2023-02-04T13:37:23;1.92;;;1.00;;
48040;SDS011;33815;48.386;11.738;2023-02-04T13:39:48;0.90;;;0.90;;
48040;SDS011;33815;48.386;11.738;2023-02-04T13:42:13;1.05;;;1.05;;
48040;SDS011;33815;48.386;11.738;2023-02-04T13:44:39;1.42;;;1.33;;
48040;SDS011;33815;48.386;11.738;2023-02-04T13:47:04;3.05;;;1.35;;
48040;SDS011;33815;48.386;11.738;2023-02-04T13:49:29;0.90;;;0.90;;
48040;SDS011;33815;48.386;11.738;2023-02-04T13:51:55;1.02;;;1.02;;
48040;SDS011;33815;48.386;11.738;2023-02-04T13:54:20;1.05;;;1.05;;
48040;SDS011;33815;48.386;11.738;2023-02-04T13:56:45;0.85;;;0.70;;
48040;SDS011;33815;48.386;11.738;2023-02-04T13:59:10;0.90;;;0.90;;
48040;SDS011;33815;48.386;11.738;2023-02-04T14:01:36;1.00;;;1.00;;
48040;SDS011;33815;48.386;11.738;2023-02-04T14:04:01;0.80;;;0.80;;
48040;SDS011;33815;48.386;11.738;2023-02-04T14:06:26;1.80;;;1.48;;
48040;SDS011;33815;48.386;11.738;2023-02-04T14:08:59;1.67;;;1.50;;
48040;SDS011;33815;48.386;11.738;2023-02-04T14:11:24;1.08;;;0.98;;
48040;SDS011;33815;48.386;11.738;2023-02-04T14:13:50;2.78;;;1.33;;
48040;SDS011;33815;48.386;11.738;2023-02-04T14:16:15;1.23;;;1.20;;
48040;SDS011;33815;48.386;11.738;2023-02-04T14:18:40;1.08;;;1.00;;
48040;SDS011;33815;48.386;11.738;2023-02-04T14:21:05;1.20;;;1.10;;
48040;SDS011;33815;48.386;11.738;2023-02-04T14:23:31;1.30;;;0.90;;
48040;SDS011;33815;48.386;11.738;2023-02-04T14:25:56;1.20;;;1.13;;
48040;SDS011;33815;48.386;11.738;2023-02-04T14:28:21;1.63;;;1.00;;
48040;SDS011;33815;48.386;11.738;2023-02-04T14:30:46;1.23;;;1.23;;
48040;SDS011;33815;48.386;11.738;2023-02-04T14:33:12;1.02;;;1.02;;
48040;SDS011;33815;48.386;11.738;2023-02-04T14:35:39;1.00;;;1.00;;